Time;durP1;ratioP1;P1;durP2;ratioP2;P2;SDS_P1;SDS_P2;PMS_P1;PMS_P2;Temp;Humidity;BMP_temperature;BMP_pressure;BME280_temperature;BME280_humidity;BME280_pressure;Samples;Min_cycle;Max_cycle;Signal;HPM_P1;HPM_P2
2023/03/02 00:00:48;;;;;;;29.10;21.00;;;6.70;99.90;;;;;;6238172;28;20439;-69
2023/03/02 00:03:51;;;;;;;30.27;19.60;;;6.80;99.90;;;;;;6240986;28;20470;-69
2023/03/02 00:06:58;;;;;;;23.50;17.00;;;6.80;99.90;;;;;;6241306;28;20471;-69
2023/03/02 00:10:01;;;;;;;23.17;16.97;;;6.80;99.90;;;;;;6238589;28;20491;-68
2023/03/02 00:13:06;;;;;;;24.73;18.60;;;6.90;99.90;;;;;;6239376;28;20462;-69
2023/03/02 00:16:09;;;;;;;26.00;20.17;;;7.00;99.90;;;;;;6233331;28;20963;-69
2023/03/02 00:19:12;;;;;;;28.27;17.30;;;6.90;99.90;;;;;;6237905;28;20478;-69
2023/03/02 00:22:15;;;;;;;28.90;22.37;;;6.90;99.90;;;;;;6235997;28;20476;-69
2023/03/02 00:25:19;;;;;;;35.80;24.93;;;6.90;99.90;;;;;;6241713;28;20483;-69
2023/03/02 00:28:23;;;;;;;52.63;34.40;;;6.90;99.90;;;;;;6230545;28;20480;-68
2023/03/02 00:31:27;;;;;;;35.50;25.07;;;6.90;99.90;;;;;;6228203;28;20480;-69
2023/03/02 00:34:31;;;;;;;25.83;18.87;;;6.90;99.90;;;;;;6228355;28;21007;-69
2023/03/02 00:37:36;;;;;;;17.30;12.97;;;6.90;99.90;;;;;;6235561;28;20470;-69
2023/03/02 00:40:45;;;;;;;20.23;13.03;;;6.90;99.90;;;;;;6254976;28;20473;-67
2023/03/02 00:43:50;;;;;;;16.40;12.43;;;6.80;99.90;;;;;;6254032;28;20479;-67
2023/03/02 00:46:53;;;;;;;17.60;12.07;;;6.80;99.90;;;;;;6253515;28;20479;-68
2023/03/02 00:49:57;;;;;;;20.40;13.30;;;6.80;99.90;;;;;;6252282;28;20481;-68
2023/03/02 00:53:00;;;;;;;20.77;14.73;;;6.80;99.90;;;;;;6251842;28;20471;-68
2023/03/02 00:56:05;;;;;;;18.67;15.70;;;6.80;99.90;;;;;;6252158;28;20486;-68
2023/03/02 00:59:24;;;;;;;19.53;14.90;;;6.80;99.90;;;;;;6252403;28;20471;-68
2023/03/02 01:02:28;;;;;;;16.93;13.57;;;6.80;99.90;;;;;;6263692;28;20465;-68
2023/03/02 01:05:35;;;;;;;18.40;14.47;;;6.80;99.90;;;;;;6276440;28;20523;-67
2023/03/02 01:08:38;;;;;;;19.33;15.13;;;6.80;99.90;;;;;;6276407;28;20790;-68
2023/03/02 01:11:41;;;;;;;23.80;16.97;;;6.80;99.90;;;;;;6276108;28;20482;-67
2023/03/02 01:14:49;;;;;;;24.37;18.37;;;6.80;99.90;;;;;;6275206;28;20520;-68
2023/03/02 01:17:53;;;;;;;20.63;15.27;;;6.80;99.90;;;;;;6275382;28;20612;-66
2023/03/02 01:21:02;;;;;;;20.20;14.83;;;6.80;99.90;;;;;;6276340;28;20964;-67
2023/03/02 01:24:06;;;;;;;18.20;14.87;;;6.90;99.90;;;;;;6276626;28;20470;-67
2023/03/02 01:27:09;;;;;;;19.47;15.93;;;6.90;99.90;;;;;;6276473;28;20481;-66
2023/03/02 01:30:15;;;;;;;20.60;16.90;;;6.90;99.90;;;;;;6276417;28;20771;-67
2023/03/02 01:33:18;;;;;;;19.97;17.10;;;6.90;99.90;;;;;;6276413;28;20470;-67
2023/03/02 01:36:22;;;;;;;19.77;17.63;;;6.90;99.90;;;;;;6276063;28;20584;-67
2023/03/02 01:39:25;;;;;;;19.33;15.33;;;6.90;99.90;;;;;;6263664;28;20564;-67
2023/03/02 01:42:34;;;;;;;22.73;18.30;;;6.90;99.90;;;;;;6251464;28;20478;-67
2023/03/02 01:45:58;;;;;;;20.23;15.30;;;6.90;99.90;;;;;;6251342;28;20447;-67
2023/03/02 01:49:04;;;;;;;18.80;15.40;;;6.90;99.90;;;;;;6251219;28;20471;-67
2023/03/02 01:52:09;;;;;;;18.47;14.00;;;7.00;99.90;;;;;;6251004;28;20487;-67
2023/03/02 01:55:19;;;;;;;21.93;16.10;;;7.00;99.90;;;;;;6251349;28;20471;-67
2023/03/02 01:58:22;;;;;;;19.50;14.63;;;7.00;99.90;;;;;;6252857;28;20479;-66
2023/03/02 02:01:29;;;;;;;21.17;15.13;;;7.00;99.90;;;;;;6255500;28;20477;-67
2023/03/02 02:04:34;;;;;;;20.10;14.50;;;7.00;99.90;;;;;;6276669;28;20481;-67
2023/03/02 02:07:38;;;;;;;22.30;15.97;;;7.10;99.90;;;;;;6276007;28;20469;-68
2023/03/02 02:10:42;;;;;;;18.65;14.45;;;7.10;99.90;;;;;;6275623;28;20549;-68
2023/03/02 02:13:45;;;;;;;19.77;16.40;;;7.10;99.90;;;;;;6275754;28;20478;-68
2023/03/02 02:16:50;;;;;;;23.00;16.67;;;7.10;99.90;;;;;;6275899;28;20798;-67
2023/03/02 02:20:06;;;;;;;17.00;13.80;;;7.10;99.90;;;;;;6275380;28;20474;-67
2023/03/02 02:23:25;;;;;;;20.10;15.80;;;7.00;99.90;;;;;;6275531;28;20474;-68
2023/03/02 02:26:34;;;;;;;16.70;12.50;;;7.00;99.90;;;;;;6274912;28;20478;-67
2023/03/02 02:29:44;;;;;;;19.57;15.03;;;7.00;99.90;;;;;;6270804;28;20470;-67
2023/03/02 02:32:49;;;;;;;18.83;16.80;;;7.00;99.90;;;;;;6274789;28;20558;-68
2023/03/02 02:36:01;;;;;;;20.90;17.40;;;7.10;99.90;;;;;;6274808;28;20812;-68
2023/03/02 02:39:08;;;;;;;22.40;16.43;;;7.00;99.90;;;;;;6264844;28;20475;-68
2023/03/02 02:42:15;;;;;;;20.83;15.90;;;7.00;99.90;;;;;;6249549;28;20471;-68
2023/03/02 02:45:24;;;;;;;22.80;16.17;;;7.10;99.90;;;;;;6249624;28;20961;-68
2023/03/02 02:48:32;;;;;;;23.10;16.90;;;7.00;99.90;;;;;;6249990;28;20479;-68
2023/03/02 02:51:35;;;;;;;20.40;16.17;;;7.10;99.90;;;;;;6249850;28;20486;-67
2023/03/02 02:54:39;;;;;;;22.27;17.67;;;7.00;99.90;;;;;;6250203;28;20454;-67
2023/03/02 02:57:43;;;;;;;22.00;17.07;;;7.10;99.90;;;;;;6251078;28;20490;-67
2023/03/02 03:00:46;;;;;;;23.43;18.07;;;7.10;99.90;;;;;;6250430;28;20459;-68
2023/03/02 03:03:52;;;;;;;24.40;18.33;;;7.10;99.90;;;;;;6275190;28;20487;-67
2023/03/02 03:06:57;;;;;;;20.83;15.70;;;7.00;99.90;;;;;;6281525;28;20492;-68
2023/03/02 03:10:06;;;;;;;23.27;17.60;;;7.00;99.90;;;;;;6275100;28;20473;-68
2023/03/02 03:13:12;;;;;;;20.87;18.00;;;7.00;99.90;;;;;;6275651;28;20458;-68
2023/03/02 03:16:16;;;;;;;19.90;15.93;;;7.10;99.90;;;;;;6274234;28;20485;-68
2023/03/02 03:19:22;;;;;;;19.40;16.73;;;7.10;99.90;;;;;;6274449;28;20549;-67
2023/03/02 03:22:26;;;;;;;19.83;15.50;;;7.10;99.90;;;;;;6274714;28;20477;-68
2023/03/02 03:25:30;;;;;;;18.73;14.90;;;7.10;99.90;;;;;;6275551;28;20925;-67
2023/03/02 03:28:35;;;;;;;22.43;15.60;;;7.10;99.90;;;;;;6280627;28;20473;-67
2023/03/02 03:31:39;;;;;;;19.00;14.90;;;7.10;99.90;;;;;;6276468;28;20477;-67
2023/03/02 03:34:42;;;;;;;19.57;15.20;;;7.00;99.90;;;;;;6280884;28;20477;-67
2023/03/02 03:37:47;;;;;;;19.93;14.73;;;7.10;99.90;;;;;;6280083;28;20481;-66
2023/03/02 03:40:50;;;;;;;17.50;13.80;;;7.10;99.90;;;;;;6255491;28;20513;-67
2023/03/02 03:43:55;;;;;;;20.10;14.73;;;7.10;99.90;;;;;;6254607;28;20481;-67
2023/03/02 03:46:58;;;;;;;17.67;14.03;;;7.10;99.90;;;;;;6257417;28;20482;-65
2023/03/02 03:50:02;;;;;;;17.83;14.10;;;7.10;99.90;;;;;;6254441;28;20471;-67
2023/03/02 03:53:05;;;;;;;21.13;14.80;;;7.00;99.90;;;;;;6254252;28;20478;-68
2023/03/02 03:56:08;;;;;;;18.37;13.77;;;7.00;99.90;;;;;;6254068;28;20474;-68
2023/03/02 03:59:15;;;;;;;16.93;13.90;;;7.00;99.90;;;;;;6254459;28;20471;-68
2023/03/02 04:02:18;;;;;;;16.57;14.03;;;7.00;99.90;;;;;;6254112;28;20459;-68
2023/03/02 04:05:21;;;;;;;20.00;14.23;;;7.00;99.90;;;;;;6253601;28;20467;-67
2023/03/02 04:08:25;;;;;;;20.13;14.30;;;7.00;99.90;;;;;;6254552;28;20835;-68
2023/03/02 04:11:28;;;;;;;16.73;13.00;;;7.00;99.90;;;;;;6255497;28;20467;-67
2023/03/02 04:14:32;;;;;;;25.40;16.03;;;6.90;99.90;;;;;;6254920;28;20474;-68
2023/03/02 04:17:36;;;;;;;19.77;14.77;;;6.90;99.90;;;;;;6252954;28;20481;-67
2023/03/02 04:20:39;;;;;;;18.03;13.90;;;6.90;99.90;;;;;;6253629;28;20474;-68
2023/03/02 04:23:42;;;;;;;17.80;13.00;;;6.90;99.90;;;;;;6253499;28;20484;-68
2023/03/02 04:26:47;;;;;;;19.90;14.10;;;6.80;99.90;;;;;;6253213;28;20493;-69
2023/03/02 04:29:52;;;;;;;20.90;15.40;;;6.80;99.90;;;;;;6253220;28;20777;-68
2023/03/02 04:32:56;;;;;;;15.17;12.43;;;6.80;99.90;;;;;;6254523;28;20958;-69
2023/03/02 04:36:00;;;;;;;21.53;14.87;;;6.80;99.90;;;;;;6253518;28;20485;-69
2023/03/02 04:39:05;;;;;;;18.47;13.63;;;6.80;99.90;;;;;;6251811;28;20537;-69
2023/03/02 04:42:08;;;;;;;16.77;13.93;;;6.80;99.90;;;;;;6253922;28;20471;-69
2023/03/02 04:45:13;;;;;;;15.90;12.90;;;6.70;99.90;;;;;;6253222;28;20478;-69
2023/03/02 04:48:16;;;;;;;14.77;13.23;;;6.60;99.90;;;;;;6253291;28;20479;-69
2023/03/02 04:51:22;;;;;;;17.47;13.97;;;6.60;99.90;;;;;;6253063;28;20486;-69
2023/03/02 04:54:27;;;;;;;18.37;14.40;;;6.60;99.90;;;;;;6253875;28;20549;-68
2023/03/02 04:57:30;;;;;;;17.03;14.60;;;6.60;99.90;;;;;;6254331;28;20479;-67
2023/03/02 05:00:35;;;;;;;19.23;14.67;;;6.60;99.90;;;;;;6255153;28;20467;-68
2023/03/02 05:03:38;;;;;;;16.53;13.60;;;6.60;99.90;;;;;;6255128;28;20439;-68
2023/03/02 05:06:42;;;;;;;16.40;14.30;;;6.50;99.90;;;;;;6254837;28;20753;-67
2023/03/02 05:09:45;;;;;;;19.47;12.50;;;6.60;99.90;;;;;;6253557;28;20942;-67
2023/03/02 05:12:56;;;;;;;15.73;13.47;;;6.60;99.90;;;;;;6253682;28;20533;-67
2023/03/02 05:16:01;;;;;;;15.97;13.00;;;6.60;99.90;;;;;;6252805;28;20467;-67
2023/03/02 05:19:06;;;;;;;18.33;13.30;;;6.60;99.90;;;;;;6252499;28;20482;-67
2023/03/02 05:22:09;;;;;;;16.43;13.20;;;6.60;99.90;;;;;;6252643;28;20459;-68
2023/03/02 05:25:13;;;;;;;16.73;12.57;;;6.60;99.90;;;;;;6253634;28;20473;-67
2023/03/02 05:28:17;;;;;;;15.83;13.17;;;6.60;99.90;;;;;;6253939;28;20942;-67
2023/03/02 05:31:26;;;;;;;16.83;12.77;;;6.70;99.90;;;;;;6253523;28;20489;-68
2023/03/02 05:34:29;;;;;;;18.60;13.67;;;6.70;99.90;;;;;;6253229;28;20483;-68
2023/03/02 05:37:33;;;;;;;17.43;13.57;;;6.70;99.90;;;;;;6252950;28;20793;-68
2023/03/02 05:40:36;;;;;;;17.50;13.83;;;6.70;99.90;;;;;;6251533;28;20482;-68
2023/03/02 05:43:40;;;;;;;13.83;11.80;;;6.70;99.90;;;;;;6251973;28;20947;-69
2023/03/02 05:46:45;;;;;;;18.20;13.13;;;6.70;99.90;;;;;;6252100;28;20466;-67
2023/03/02 05:49:48;;;;;;;18.17;14.40;;;6.70;99.90;;;;;;6251260;28;20617;-68
2023/03/02 05:52:51;;;;;;;20.23;14.80;;;6.70;99.90;;;;;;6251730;28;20477;-67
2023/03/02 05:55:55;;;;;;;17.77;13.83;;;6.70;99.90;;;;;;6251164;28;20491;-68
2023/03/02 05:58:58;;;;;;;15.83;13.00;;;6.70;99.90;;;;;;6231292;28;20490;-69
2023/03/02 06:02:03;;;;;;;15.47;13.87;;;6.70;99.90;;;;;;6244638;28;20470;-67
2023/03/02 06:05:08;;;;;;;20.67;14.73;;;6.70;99.90;;;;;;6275468;28;20899;-68
2023/03/02 06:08:11;;;;;;;19.63;12.93;;;6.80;99.90;;;;;;6275674;28;20803;-68
2023/03/02 06:11:14;;;;;;;22.47;15.30;;;6.80;99.90;;;;;;6275545;28;20485;-68
2023/03/02 06:14:17;;;;;;;16.33;13.90;;;6.80;99.90;;;;;;6274903;28;20466;-69
2023/03/02 06:17:22;;;;;;;20.43;13.90;;;6.70;99.90;;;;;;6275389;28;20484;-68
2023/03/02 06:20:26;;;;;;;24.67;14.93;;;6.70;99.90;;;;;;6274889;28;20513;-69
2023/03/02 06:23:29;;;;;;;16.80;14.57;;;6.80;99.90;;;;;;6275126;28;20461;-68
2023/03/02 06:26:32;;;;;;;18.43;14.77;;;6.80;99.90;;;;;;6275769;28;20474;-68
2023/03/02 06:29:36;;;;;;;19.57;15.70;;;6.90;99.90;;;;;;6275723;28;20489;-67
2023/03/02 06:32:41;;;;;;;16.80;12.97;;;7.00;99.90;;;;;;6275815;28;20474;-67
2023/03/02 06:35:44;;;;;;;19.83;14.57;;;7.00;99.90;;;;;;6275949;28;20520;-67
2023/03/02 06:38:47;;;;;;;17.43;13.87;;;7.20;99.90;;;;;;6268712;28;20585;-66
2023/03/02 06:41:51;;;;;;;19.27;14.67;;;7.20;99.90;;;;;;6251038;28;20470;-67
2023/03/02 06:44:54;;;;;;;20.20;15.80;;;7.30;99.90;;;;;;6243294;28;20466;-68
2023/03/02 06:47:59;;;;;;;19.73;14.40;;;7.30;99.90;;;;;;6251275;28;21016;-67
2023/03/02 06:51:02;;;;;;;15.37;13.47;;;7.30;99.90;;;;;;6250956;28;20961;-67
2023/03/02 06:54:07;;;;;;;20.47;14.40;;;7.40;99.90;;;;;;6250408;28;20562;-67
2023/03/02 06:57:10;;;;;;;18.10;13.67;;;7.40;99.90;;;;;;6250790;28;20585;-66
2023/03/02 07:00:16;;;;;;;15.10;12.60;;;7.40;99.90;;;;;;6250214;28;20996;-68
2023/03/02 07:03:21;;;;;;;16.80;13.73;;;7.40;99.90;;;;;;6268833;28;20494;-68
2023/03/02 07:06:24;;;;;;;18.00;13.97;;;7.40;99.90;;;;;;6274361;28;20459;-67
2023/03/02 07:09:29;;;;;;;19.80;15.07;;;7.50;99.90;;;;;;6274522;28;20807;-68
2023/03/02 07:12:32;;;;;;;14.93;13.27;;;7.50;99.90;;;;;;6273880;28;20824;-67
2023/03/02 07:15:38;;;;;;;15.93;12.73;;;7.60;99.90;;;;;;6273812;28;20489;-67
2023/03/02 07:18:43;;;;;;;18.27;13.30;;;7.60;99.90;;;;;;6273385;28;20812;-66
2023/03/02 07:21:46;;;;;;;19.23;13.90;;;7.70;99.90;;;;;;6274243;28;20462;-67
2023/03/02 07:24:49;;;;;;;15.67;13.30;;;7.80;99.90;;;;;;6275554;28;20449;-68
2023/03/02 07:27:52;;;;;;;16.37;14.67;;;7.80;99.90;;;;;;6275878;28;20470;-67
2023/03/02 07:30:56;;;;;;;16.63;13.50;;;7.90;99.90;;;;;;6274019;28;20484;-67
2023/03/02 07:34:00;;;;;;;16.40;14.70;;;8.00;99.90;;;;;;6273641;28;20470;-67
2023/03/02 07:37:04;;;;;;;18.00;13.40;;;8.10;99.90;;;;;;6274618;28;20477;-68
2023/03/02 07:40:10;;;;;;;18.90;14.00;;;8.20;99.90;;;;;;6267115;28;20486;-68
2023/03/02 07:43:13;;;;;;;16.00;13.73;;;8.20;99.90;;;;;;6249243;28;20973;-68
2023/03/02 07:46:16;;;;;;;15.93;13.30;;;8.20;99.90;;;;;;6244778;28;20533;-68
2023/03/02 07:49:21;;;;;;;17.27;13.77;;;8.30;99.90;;;;;;6248970;28;20950;-67
2023/03/02 07:52:24;;;;;;;20.50;15.00;;;8.30;99.90;;;;;;6249430;28;20481;-68
2023/03/02 07:55:28;;;;;;;17.87;14.40;;;8.20;99.90;;;;;;6249893;28;20954;-68
2023/03/02 07:58:31;;;;;;;18.67;13.70;;;8.30;99.90;;;;;;6250077;28;20486;-67
2023/03/02 08:01:34;;;;;;;16.13;13.00;;;8.20;99.90;;;;;;6255031;28;20465;-68
2023/03/02 08:04:39;;;;;;;15.93;13.50;;;8.20;99.90;;;;;;6273727;28;20545;-68
2023/03/02 08:07:42;;;;;;;20.10;14.10;;;8.20;99.90;;;;;;6273757;28;20482;-68
2023/03/02 08:10:46;;;;;;;17.17;13.37;;;8.30;99.90;;;;;;6274158;28;20466;-67
2023/03/02 08:13:49;;;;;;;17.23;13.10;;;8.40;99.90;;;;;;6277542;28;20501;-67
2023/03/02 08:16:52;;;;;;;15.03;13.27;;;8.50;99.90;;;;;;6262515;28;20494;-66
2023/03/02 08:19:57;;;;;;;20.00;16.97;;;8.60;99.90;;;;;;6237658;28;20489;-66
2023/03/02 08:23:00;;;;;;;23.47;18.20;;;8.50;99.90;;;;;;6245595;28;20473;-65
2023/03/02 08:26:03;;;;;;;24.47;17.43;;;8.60;99.90;;;;;;6245199;28;20476;-65
2023/03/02 08:29:07;;;;;;;20.10;17.90;;;8.70;99.90;;;;;;6240218;28;20471;-66
2023/03/02 08:32:10;;;;;;;21.07;18.83;;;8.70;99.90;;;;;;6236170;28;20471;-65
2023/03/02 08:35:15;;;;;;;21.83;17.73;;;8.80;99.90;;;;;;6249375;28;20486;-66
2023/03/02 08:38:18;;;;;;;24.00;18.07;;;8.80;99.90;;;;;;6233316;28;20794;-66
2023/03/02 08:41:23;;;;;;;20.83;18.57;;;8.90;99.90;;;;;;6237393;28;20461;-65
2023/03/02 08:44:26;;;;;;;24.10;19.17;;;8.90;99.90;;;;;;6251795;28;20478;-66
2023/03/02 08:47:30;;;;;;;20.07;17.73;;;8.90;99.90;;;;;;6252236;28;20474;-66
2023/03/02 08:50:35;;;;;;;20.10;16.97;;;8.90;99.90;;;;;;6252026;28;20478;-66
2023/03/02 08:53:43;;;;;;;22.50;17.23;;;8.90;99.90;;;;;;6243514;28;20467;-66
2023/03/02 08:56:47;;;;;;;22.23;18.13;;;9.00;99.90;;;;;;6252230;28;20467;-65
2023/03/02 08:59:51;;;;;;;20.67;17.70;;;9.00;99.90;;;;;;6251916;28;20966;-65
2023/03/02 09:02:54;;;;;;;19.77;17.37;;;9.10;99.90;;;;;;6268184;28;20486;-66
2023/03/02 09:05:59;;;;;;;19.30;16.40;;;9.30;99.90;;;;;;6276613;28;20472;-66
2023/03/02 09:09:03;;;;;;;21.10;16.70;;;9.40;99.90;;;;;;6276488;28;20478;-66
2023/03/02 09:12:06;;;;;;;24.60;18.37;;;9.40;99.90;;;;;;6276976;28;20493;-66
2023/03/02 09:15:10;;;;;;;19.20;17.07;;;9.20;99.90;;;;;;6276462;28;20478;-65
2023/03/02 09:18:13;;;;;;;19.90;17.33;;;9.30;99.90;;;;;;6256839;28;20482;-65
2023/03/02 09:21:18;;;;;;;23.13;18.00;;;9.30;99.90;;;;;;6251668;28;20475;-65
2023/03/02 09:24:21;;;;;;;19.60;16.70;;;9.40;99.90;;;;;;6250222;28;21067;-67
2023/03/02 09:27:24;;;;;;;20.30;16.93;;;9.60;99.90;;;;;;6251128;28;20478;-65
2023/03/02 09:30:27;;;;;;;20.40;16.30;;;9.70;99.90;;;;;;6251066;28;20962;-66
2023/03/02 09:33:31;;;;;;;18.00;16.13;;;10.00;99.90;;;;;;6250855;28;20791;-67
2023/03/02 09:36:36;;;;;;;16.83;14.60;;;10.10;99.90;;;;;;6251398;28;20490;-66
2023/03/02 09:39:40;;;;;;;18.97;16.23;;;10.30;99.90;;;;;;6250248;28;20981;-66
2023/03/02 09:43:10;;;;;;;18.10;15.10;;;10.20;99.90;;;;;;6236739;28;20491;-67
2023/03/02 09:46:22;;;;;;;19.20;15.00;;;10.20;99.90;;;;;;6221220;28;20467;-65
2023/03/02 09:49:31;;;;;;;16.13;14.37;;;10.20;99.90;;;;;;6225867;28;20565;-66
2023/03/02 09:52:40;;;;;;;16.93;14.17;;;10.40;99.90;;;;;;6246682;28;20463;-68
2023/03/02 09:55:45;;;;;;;15.40;13.30;;;10.40;99.90;;;;;;6246561;28;20475;-67
2023/03/02 09:58:55;;;;;;;16.30;14.23;;;10.50;99.90;;;;;;6233354;28;20480;-65
2023/03/02 10:02:03;;;;;;;16.77;13.30;;;10.70;99.90;;;;;;6240349;28;20479;-66
2023/03/02 10:05:12;;;;;;;19.27;13.97;;;10.80;99.90;;;;;;6244738;28;20475;-66
2023/03/02 10:08:19;;;;;;;15.97;14.30;;;10.70;99.90;;;;;;6239913;28;20471;-64
2023/03/02 10:11:31;;;;;;;19.00;14.30;;;10.60;99.50;;;;;;6237036;28;20471;-65
2023/03/02 10:14:39;;;;;;;15.40;13.37;;;10.50;99.30;;;;;;6242834;28;20490;-65
2023/03/02 10:17:59;;;;;;;20.97;14.53;;;10.40;99.20;;;;;;6232247;28;20475;-66
2023/03/02 10:21:06;;;;;;;17.13;15.00;;;10.40;99.40;;;;;;6230681;28;20479;-65
2023/03/02 10:24:20;;;;;;;16.80;14.40;;;10.20;99.30;;;;;;6243655;28;20479;-66
2023/03/02 10:27:28;;;;;;;19.60;15.07;;;10.10;99.70;;;;;;6228990;28;20476;-65
2023/03/02 10:30:36;;;;;;;23.40;16.40;;;9.90;99.90;;;;;;6225645;28;20468;-66
2023/03/02 10:33:41;;;;;;;14.87;13.47;;;9.80;99.90;;;;;;6225413;28;20440;-66
2023/03/02 10:36:46;;;;;;;22.03;15.77;;;9.90;99.90;;;;;;6224665;28;20479;-66
2023/03/02 10:39:51;;;;;;;20.50;16.33;;;9.90;99.90;;;;;;6225394;28;20902;-66
2023/03/02 10:42:56;;;;;;;21.63;17.27;;;9.80;99.90;;;;;;6226015;28;20444;-66
2023/03/02 10:46:00;;;;;;;17.53;15.47;;;9.80;99.90;;;;;;6224947;28;20494;-66
2023/03/02 10:49:04;;;;;;;21.17;14.93;;;9.90;99.90;;;;;;6225270;28;20487;-66
2023/03/02 10:52:13;;;;;;;18.50;16.20;;;10.20;99.90;;;;;;6241841;28;20938;-66
2023/03/02 10:55:18;;;;;;;17.10;15.30;;;10.50;99.90;;;;;;6247623;28;20467;-65
2023/03/02 10:58:24;;;;;;;17.70;15.20;;;10.70;99.40;;;;;;6240744;28;20495;-65
2023/03/02 11:01:28;;;;;;;20.17;16.70;;;10.90;98.80;;;;;;6238018;28;20478;-67
2023/03/02 11:04:31;;;;;;;16.53;14.47;;;11.00;98.30;;;;;;6273615;28;20470;-67
2023/03/02 11:07:34;;;;;;;21.73;15.03;;;11.20;98.20;;;;;;6273898;28;20549;-65
2023/03/02 11:10:41;;;;;;;16.57;14.80;;;11.40;97.70;;;;;;6273984;28;20557;-65
2023/03/02 11:13:44;;;;;;;18.07;15.57;;;11.40;96.80;;;;;;6273562;28;20814;-64
2023/03/02 11:16:47;;;;;;;18.10;14.60;;;11.40;96.40;;;;;;6273189;28;20930;-63
2023/03/02 11:19:51;;;;;;;17.40;15.27;;;11.40;96.30;;;;;;6273738;28;20482;-65
2023/03/02 11:23:05;;;;;;;20.80;13.10;;;11.20;96.40;;;;;;6273411;28;20480;-63
2023/03/02 11:26:16;;;;;;;19.20;14.07;;;11.10;96.70;;;;;;6254696;28;20475;-64
2023/03/02 11:29:30;;;;;;;21.20;14.70;;;11.20;96.80;;;;;;6249015;28;20533;-63
2023/03/02 11:32:40;;;;;;;15.57;13.80;;;11.30;96.10;;;;;;6248460;28;20471;-65
2023/03/02 11:35:47;;;;;;;20.73;14.50;;;11.20;96.10;;;;;;6248865;28;20830;-64
2023/03/02 11:38:54;;;;;;;15.23;13.50;;;11.30;95.80;;;;;;6248458;28;20522;-65
2023/03/02 11:41:59;;;;;;;16.47;14.67;;;11.40;95.70;;;;;;6248745;28;20497;-62
2023/03/02 11:45:15;;;;;;;17.17;15.47;;;11.40;95.70;;;;;;6248657;28;20892;-67
2023/03/02 11:48:24;;;;;;;17.70;13.77;;;11.30;95.50;;;;;;6251273;28;20591;-64
2023/03/02 11:51:29;;;;;;;18.60;15.37;;;11.20;95.60;;;;;;6242483;28;20483;-64
2023/03/02 11:54:39;;;;;;;16.27;13.90;;;11.00;95.40;;;;;;6228574;28;20472;-64
2023/03/02 11:57:47;;;;;;;15.20;13.60;;;11.00;95.70;;;;;;6228433;28;20488;-64
2023/03/02 12:00:52;;;;;;;20.60;13.87;;;11.00;95.80;;;;;;6228528;28;20428;-64
2023/03/02 12:04:07;;;;;;;16.57;13.13;;;11.10;95.60;;;;;;6267232;28;20453;-64
2023/03/02 12:07:21;;;;;;;15.40;13.90;;;10.90;94.60;;;;;;6277733;28;20481;-64
2023/03/02 12:10:30;;;;;;;20.03;13.90;;;10.90;94.60;;;;;;6278037;28;20466;-66
2023/03/02 12:13:37;;;;;;;15.77;12.10;;;11.00;94.70;;;;;;6277950;28;20473;-65
2023/03/02 12:16:41;;;;;;;15.33;12.80;;;11.00;94.30;;;;;;6277487;28;20475;-64
2023/03/02 12:19:45;;;;;;;15.23;12.30;;;11.20;93.90;;;;;;6277725;28;20474;-65
2023/03/02 12:22:49;;;;;;;17.20;13.07;;;11.30;93.80;;;;;;6277417;28;20477;-65
2023/03/02 12:26:04;;;;;;;14.20;12.70;;;11.40;93.60;;;;;;6260993;28;20766;-65
2023/03/02 12:29:23;;;;;;;14.13;12.77;;;11.60;93.50;;;;;;6252519;28;20483;-64
2023/03/02 12:32:30;;;;;;;14.40;13.00;;;11.60;93.00;;;;;;6252525;28;20520;-64
2023/03/02 12:35:34;;;;;;;14.20;12.00;;;11.70;92.70;;;;;;6252639;28;20479;-66
2023/03/02 12:38:41;;;;;;;14.57;12.37;;;11.70;92.60;;;;;;6255017;28;20541;-64
2023/03/02 12:42:03;;;;;;;15.10;12.37;;;11.70;92.70;;;;;;6254575;28;20997;-64
2023/03/02 12:45:19;;;;;;;13.37;12.13;;;11.80;92.40;;;;;;6252220;28;20550;-65
2023/03/02 12:48:29;;;;;;;20.20;13.83;;;11.80;92.20;;;;;;6251840;28;20494;-64
2023/03/02 12:51:46;;;;;;;16.73;13.00;;;11.90;92.40;;;;;;6239885;28;20581;-63
2023/03/02 12:55:00;;;;;;;14.57;11.70;;;11.80;91.70;;;;;;6227635;28;20538;-64
2023/03/02 12:58:03;;;;;;;14.13;12.50;;;11.80;91.70;;;;;;6226482;28;20971;-64
2023/03/02 13:01:20;;;;;;;15.83;12.50;;;11.70;91.70;;;;;;6229115;28;20468;-62
2023/03/02 13:04:25;;;;;;;14.07;12.63;;;11.60;91.60;;;;;;6276756;28;20474;-63
2023/03/02 13:07:35;;;;;;;15.03;13.30;;;11.50;91.80;;;;;;6272083;28;20596;-62
2023/03/02 13:10:41;;;;;;;17.37;12.80;;;11.40;92.10;;;;;;6276702;28;20469;-61
2023/03/02 13:13:46;;;;;;;14.87;13.17;;;11.30;92.20;;;;;;6276231;28;21075;-62
2023/03/02 13:17:01;;;;;;;16.23;13.50;;;11.30;92.20;;;;;;6275942;28;20474;-61
2023/03/02 13:20:06;;;;;;;12.70;11.13;;;11.30;92.10;;;;;;6276131;28;20474;-62
2023/03/02 13:23:12;;;;;;;13.97;11.33;;;11.40;92.20;;;;;;6276277;28;21031;-64
2023/03/02 13:26:26;;;;;;;12.33;10.23;;;11.40;92.10;;;;;;6256620;28;20467;-62
2023/03/02 13:29:30;;;;;;;11.83;10.63;;;11.40;91.70;;;;;;6233235;28;20799;-63
2023/03/02 13:32:40;;;;;;;13.30;10.40;;;11.40;91.70;;;;;;6248231;28;20475;-62
2023/03/02 13:35:46;;;;;;;13.03;11.73;;;11.50;91.80;;;;;;6251347;28;20463;-63
2023/03/02 13:38:51;;;;;;;12.60;11.30;;;11.50;91.40;;;;;;6249729;28;21010;-63
2023/03/02 13:41:56;;;;;;;13.40;11.27;;;11.30;91.10;;;;;;6249833;28;20479;-64
2023/03/02 13:45:13;;;;;;;12.90;10.40;;;11.40;91.50;;;;;;6243156;28;20472;-62
2023/03/02 13:48:18;;;;;;;13.03;10.27;;;11.50;91.40;;;;;;6232244;28;20474;-62
2023/03/02 13:51:22;;;;;;;10.93;9.83;;;11.50;91.30;;;;;;6234057;28;20970;-63
2023/03/02 13:54:28;;;;;;;12.67;10.80;;;11.60;91.40;;;;;;6233270;28;20472;-62
2023/03/02 13:57:32;;;;;;;14.87;10.70;;;11.60;91.20;;;;;;6236995;28;20498;-62
2023/03/02 14:00:36;;;;;;;12.73;10.93;;;11.60;91.10;;;;;;6230323;28;20507;-62
2023/03/02 14:03:40;;;;;;;16.70;11.60;;;11.70;90.70;;;;;;6238546;28;20444;-62
2023/03/02 14:06:44;;;;;;;15.13;11.73;;;11.60;90.40;;;;;;6231382;28;20440;-62
2023/03/02 14:09:48;;;;;;;12.43;10.27;;;11.60;90.10;;;;;;6232149;28;20799;-62
2023/03/02 14:12:56;;;;;;;12.63;11.30;;;11.70;90.20;;;;;;6228607;28;20448;-60
2023/03/02 14:15:59;;;;;;;12.67;10.70;;;11.70;90.00;;;;;;6225927;28;20464;-60
2023/03/02 14:19:04;;;;;;;14.50;11.70;;;11.60;90.00;;;;;;6226050;28;20475;-60
2023/03/02 14:22:10;;;;;;;12.23;10.87;;;11.60;90.10;;;;;;6225332;28;20514;-59
2023/03/02 14:25:14;;;;;;;13.23;10.50;;;11.50;90.40;;;;;;6236690;28;20473;-64
2023/03/02 14:28:26;;;;;;;13.50;11.53;;;11.50;90.40;;;;;;6250520;28;20489;-63
2023/03/02 14:31:29;;;;;;;15.13;11.17;;;11.60;90.00;;;;;;6253731;28;20474;-62
2023/03/02 14:34:35;;;;;;;11.93;10.70;;;11.60;89.40;;;;;;6231741;28;20479;-64
2023/03/02 14:37:43;;;;;;;16.47;11.70;;;11.70;89.40;;;;;;6225469;28;20830;-65
2023/03/02 14:40:46;;;;;;;13.73;12.10;;;11.80;89.20;;;;;;6225123;28;20488;-65
2023/03/02 14:43:50;;;;;;;12.77;10.30;;;11.80;88.80;;;;;;6225864;28;20474;-64
2023/03/02 14:46:53;;;;;;;16.50;11.57;;;11.90;88.00;;;;;;6224850;28;20464;-64
2023/03/02 14:49:58;;;;;;;14.37;11.93;;;11.80;85.90;;;;;;6225336;28;20491;-61
2023/03/02 14:53:01;;;;;;;12.83;11.03;;;11.80;85.40;;;;;;6251467;28;20974;-61
2023/03/02 14:56:06;;;;;;;12.37;10.27;;;11.70;83.20;;;;;;6251508;28;20467;-63
2023/03/02 14:59:13;;;;;;;16.63;11.87;;;11.70;83.80;;;;;;6249561;28;20471;-63
2023/03/02 15:02:21;;;;;;;15.10;10.33;;;11.70;84.10;;;;;;6248276;28;20471;-62
2023/03/02 15:05:30;;;;;;;15.10;10.83;;;11.60;84.00;;;;;;6247523;28;20471;-64
2023/03/02 15:08:34;;;;;;;12.30;11.00;;;11.40;83.70;;;;;;6245639;28;20487;-63
2023/03/02 15:11:37;;;;;;;10.73;9.60;;;11.20;84.80;;;;;;6248232;28;20459;-64
2023/03/02 15:14:40;;;;;;;12.13;9.87;;;11.10;82.80;;;;;;6248050;28;20485;-62
2023/03/02 15:17:43;;;;;;;10.33;9.33;;;11.00;83.10;;;;;;6247894;28;20494;-61
2023/03/02 15:20:48;;;;;;;14.10;10.67;;;11.00;83.40;;;;;;6248403;28;20475;-60
2023/03/02 15:23:51;;;;;;;11.50;9.83;;;11.00;84.50;;;;;;6251470;28;20781;-60
2023/03/02 15:26:54;;;;;;;13.70;10.60;;;11.00;85.50;;;;;;6252294;28;20478;-61
2023/03/02 15:29:57;;;;;;;11.43;10.20;;;10.80;85.00;;;;;;6252349;28;20521;-64
2023/03/02 15:33:01;;;;;;;12.27;10.97;;;10.80;85.70;;;;;;6252602;28;20475;-65
2023/03/02 15:36:06;;;;;;;13.80;10.47;;;10.70;85.90;;;;;;6252234;28;21186;-63
2023/03/02 15:39:12;;;;;;;13.20;10.77;;;10.70;85.60;;;;;;6253149;28;20490;-62
2023/03/02 15:42:16;;;;;;;9.67;8.20;;;10.80;85.70;;;;;;6253541;28;20479;-62
2023/03/02 15:45:19;;;;;;;10.90;9.17;;;10.70;82.90;;;;;;6253301;28;20496;-62
2023/03/02 15:48:22;;;;;;;8.90;7.93;;;10.70;81.80;;;;;;6252896;28;20796;-62